Etusivu
METAR-TAF:

METAR-TAF

Lentoasemat :

Tekamah Municipal Airport

Tekamah, Nebraska, Yhdysvallat

Leveyspiiri: 41-46-01N, Pituuspiiri: 096-10-40W, korkeus merenpinnasta: 313 m

Tämänhetkinen sää

Tämä raportti tehtiin 1 tunti ja 1 minuuttia sitten, kello 20.54 UTC
Tuuli 12 kn etelästä puuskistuen 21 kn:hen
Lämpötila 34°C
Kosteus 53%
Ilmanpaine 1014 hPa
Näkyvyys: 16.1 km
selkeää

METAR: KTQE 132054Z AUTO 18012G21KT 10SM CLR 34/23 A2993 RMK AO2 SLP120 T03440233 56004

Aika: 16:55 (21:55 UTC)


TAF: puuttuu

Säähavainnot ja -ennusteet yli 4000 lentoasemalta (METAR- ja TAF-raportit).

Käytössä olevat sääasemat on merkitty karttaan keltaisilla ja punaisilla pisteillä.

Aseta hiiri pisteen päälle nähdäksesi sääaseman nimen.

Klikkaa sitten nähdäksesi säähavainnot ja -ennusteet.

Kartan vaihtaminen: klikkaa mustalla rastilla varustettuja vihreitä pisteitä, niin voit zoomata sisään; viivalla varustettua vihreää pistettä, niin voit zoomata ulos tai vihreitä nuolia, niin pääset viereisille kartoille.


METAR-TAF: